Time;durP1;ratioP1;P1;durP2;ratioP2;P2;SDS_P1;SDS_P2;PMS_P1;PMS_P2;Temp;Humidity;BMP_temperature;BMP_pressure;BME280_temperature;BME280_humidity;BME280_pressure;Samples;Min_cycle;Max_cycle;Signal;HPM_P1;HPM_P2
2021/03/13 00:02:14;;;;;;;15.67;2.97;;;7.60;85.60;;;;;;4980005;28;20041;-88
2021/03/13 00:04:46;;;;;;;10.17;2.00;;;7.70;85.70;;;;;;4979411;28;20043;-89
2021/03/13 00:07:15;;;;;;;13.60;3.00;;;7.60;85.70;;;;;;4996873;28;20041;-87
2021/03/13 00:09:50;;;;;;;;;;;;;;;;;;;;;
2021/03/13 00:12:16;;;;;;;13.13;2.27;;;7.70;85.80;;;;;;4981454;28;20094;-88
2021/03/13 00:14:44;;;;;;;16.90;2.30;;;7.50;85.70;;;;;;4979008;28;20108;-87
2021/03/13 00:17:15;;;;;;;20.07;2.47;;;7.60;85.80;;;;;;4995576;28;20161;-86
2021/03/13 00:19:45;;;;;;;14.93;3.20;;;7.60;85.90;;;;;;4979399;28;20082;-89
2021/03/13 00:22:13;;;;;;;16.60;3.30;;;7.70;86.70;;;;;;4979355;28;20031;-87
2021/03/13 00:24:46;;;;;;;15.90;2.43;;;7.60;86.10;;;;;;4962807;28;20539;-88
2021/03/13 00:27:14;;;;;;;17.63;2.30;;;7.70;86.10;;;;;;4980365;28;20027;-89
2021/03/13 00:29:47;;;;;;;12.10;2.37;;;7.60;86.30;;;;;;4979439;28;20368;-87
2021/03/13 00:32:15;;;;;;;8.40;2.03;;;7.70;86.40;;;;;;4980539;28;20464;-89
2021/03/13 00:34:46;;;;;;;16.17;2.73;;;7.60;86.40;;;;;;4995696;28;20113;-88
2021/03/13 00:37:15;;;;;;;13.80;1.77;;;7.60;86.50;;;;;;4979056;28;20041;-88
2021/03/13 00:39:48;;;;;;;16.70;2.70;;;7.50;86.60;;;;;;4996749;28;20030;-88
2021/03/13 00:42:16;;;;;;;15.83;2.97;;;7.50;86.80;;;;;;4995600;28;20033;-91
2021/03/13 00:44:46;;;;;;;12.83;2.10;;;7.50;86.80;;;;;;4994995;28;20034;-88
2021/03/13 00:47:14;;;;;;;11.07;2.33;;;7.50;86.90;;;;;;4962722;28;20087;-90
2021/03/13 00:49:40;;;;;;;18.53;1.97;;;7.50;87.00;;;;;;4994623;28;20113;-90
2021/03/13 00:52:06;;;;;;;10.93;1.90;;;7.50;87.10;;;;;;4995904;28;20070;-88
2021/03/13 00:54:35;;;;;;;14.53;1.83;;;7.50;87.20;;;;;;4990378;28;20060;-89
2021/03/13 00:57:06;;;;;;;14.17;1.77;;;7.50;87.30;;;;;;5015116;28;20025;-89
2021/03/13 00:59:34;;;;;;;12.57;1.67;;;7.50;87.20;;;;;;4998589;28;20025;-88
2021/03/13 01:02:02;;;;;;;12.30;2.07;;;7.50;87.20;;;;;;4998153;28;20181;-88
2021/03/13 01:04:28;;;;;;;11.63;2.07;;;7.50;87.30;;;;;;4998396;28;20045;-90
2021/03/13 01:06:56;;;;;;;12.33;2.03;;;7.50;87.40;;;;;;5016164;28;20022;-91
2021/03/13 01:09:25;;;;;;;18.87;1.73;;;7.50;87.40;;;;;;5014290;28;20046;-89
2021/03/13 01:11:58;;;;;;;15.07;2.20;;;7.50;87.60;;;;;;5014813;28;20030;-91
2021/03/13 01:14:24;;;;;;;13.98;2.50;;;7.50;87.50;;;;;;5015685;28;20057;-92
2021/03/13 01:16:57;;;;;;;16.13;2.60;;;7.60;87.90;;;;;;4997998;28;20459;-90
2021/03/13 01:19:26;;;;;;;9.97;1.70;;;7.50;88.30;;;;;;4998967;28;20372;-92
2021/03/13 01:21:56;;;;;;;13.57;2.23;;;7.60;88.70;;;;;;5013869;28;20077;-90
2021/03/13 01:24:24;;;;;;;12.23;2.23;;;7.50;89.30;;;;;;5014808;28;20368;-92
2021/03/13 01:26:54;;;;;;;15.70;2.30;;;7.50;89.90;;;;;;5000698;28;20021;-90
2021/03/13 01:29:27;;;;;;;14.97;2.43;;;7.50;90.40;;;;;;5015288;28;20048;-89
2021/03/13 01:32:03;;;;;;;;;;;;;;;;;;;;;
2021/03/13 01:34:35;;;;;;;13.23;2.30;;;7.40;91.60;;;;;;5016285;28;20498;-91
2021/03/13 01:37:08;;;;;;;20.53;3.07;;;7.30;92.20;;;;;;4998526;28;20470;-89
2021/03/13 01:39:36;;;;;;;17.10;2.93;;;7.20;92.50;;;;;;5015560;28;20477;-90
2021/03/13 01:42:12;;;;;;;12.73;2.43;;;7.10;92.70;;;;;;4998572;28;20026;-90
2021/03/13 01:44:38;;;;;;;14.43;2.57;;;7.10;92.90;;;;;;4997847;28;20042;-89
2021/03/13 01:47:15;;;;;;;17.70;2.73;;;7.00;93.10;;;;;;4997288;28;20033;-90
2021/03/13 01:49:48;;;;;;;14.10;2.57;;;6.90;93.20;;;;;;4997611;28;20022;-89
2021/03/13 01:52:14;;;;;;;16.63;2.90;;;7.00;93.80;;;;;;5014194;28;20131;-90
2021/03/13 01:54:48;;;;;;;15.93;2.83;;;6.90;93.90;;;;;;4994704;28;20054;-90
2021/03/13 01:57:16;;;;;;;15.05;2.83;;;6.90;94.20;;;;;;4978140;28;20030;-91
2021/03/13 02:03:04;;;;;;;9.40;2.90;;;6.80;94.50;;;;;;4995810;28;20025;-91
2021/03/13 02:09:15;;;;;;;17.27;2.63;;;6.80;94.80;;;;;;4996054;28;20029;-89
2021/03/13 02:12:20;;;;;;;15.47;4.13;;;6.70;95.10;;;;;;4993320;28;20072;-88
2021/03/13 02:18:25;;;;;;;10.23;2.60;;;6.70;95.20;;;;;;4995284;28;20093;-88
2021/03/13 02:21:10;;;;;;;9.33;2.90;;;6.60;95.60;;;;;;4978597;28;20483;-89
2021/03/13 02:26:38;;;;;;;16.00;3.47;;;6.60;95.90;;;;;;5001535;28;19917;-88
2021/03/13 02:29:34;;;;;;;9.70;3.60;;;6.50;96.00;;;;;;4994217;28;20034;-87
2021/03/13 02:32:03;;;;;;;14.53;3.60;;;6.50;96.20;;;;;;4978676;28;20034;-87
2021/03/13 02:34:33;;;;;;;13.70;4.30;;;6.50;96.40;;;;;;4980728;28;20030;-88
2021/03/13 02:37:04;;;;;;;17.40;4.17;;;6.50;96.50;;;;;;4996787;28;20023;-86
2021/03/13 02:39:32;;;;;;;14.03;4.40;;;6.50;96.70;;;;;;4997323;28;20113;-88
2021/03/13 02:42:02;;;;;;;11.77;4.17;;;6.40;96.70;;;;;;4982915;28;20041;-88
2021/03/13 02:44:30;;;;;;;13.50;4.57;;;6.50;96.90;;;;;;4982839;28;20537;-87
2021/03/13 02:46:57;;;;;;;11.47;4.33;;;6.40;96.90;;;;;;4983539;28;20369;-88
2021/03/13 02:49:26;;;;;;;16.93;5.90;;;6.40;97.00;;;;;;4981099;28;20033;-89
2021/03/13 02:51:58;;;;;;;11.93;5.10;;;6.40;97.10;;;;;;4998286;28;20022;-86
2021/03/13 02:54:25;;;;;;;12.03;5.13;;;6.40;97.20;;;;;;4991614;28;20108;-87
2021/03/13 02:56:55;;;;;;;12.23;5.17;;;6.40;97.30;;;;;;5016117;28;20044;-87
2021/03/13 02:59:22;;;;;;;17.10;5.77;;;6.40;97.40;;;;;;5016215;28;20022;-86
2021/03/13 03:01:49;;;;;;;17.13;6.33;;;6.40;97.50;;;;;;5016867;28;20029;-89
2021/03/13 03:04:18;;;;;;;12.93;5.80;;;6.30;97.50;;;;;;5015877;28;20037;-87
2021/03/13 03:06:58;;;;;;;16.73;6.37;;;6.30;97.50;;;;;;5015949;28;20030;-87
2021/03/13 03:09:24;;;;;;;16.27;6.47;;;6.30;97.60;;;;;;5016218;28;20459;-87
2021/03/13 03:12:03;;;;;;;14.67;6.60;;;6.30;97.70;;;;;;5016370;28;20161;-87
2021/03/13 03:14:37;;;;;;;18.83;7.13;;;6.30;97.70;;;;;;5016337;28;20034;-87
2021/03/13 03:17:04;;;;;;;23.97;7.27;;;6.20;97.70;;;;;;5016113;28;20120;-87
2021/03/13 03:19:33;;;;;;;17.63;7.47;;;6.40;97.80;;;;;;5017494;28;20032;-88
2021/03/13 03:22:07;;;;;;;16.80;7.97;;;6.40;97.80;;;;;;5016480;28;20109;-89
2021/03/13 03:24:33;;;;;;;14.38;6.75;;;6.40;97.90;;;;;;5016647;28;20169;-89
2021/03/13 03:27:02;;;;;;;19.07;7.07;;;6.40;97.90;;;;;;5016119;28;20022;-89
2021/03/13 03:29:28;;;;;;;14.93;6.90;;;6.40;97.90;;;;;;5017038;28;20026;-89
2021/03/13 03:31:54;;;;;;;15.73;6.70;;;6.40;97.90;;;;;;5017031;28;20026;-88
2021/03/13 03:34:20;;;;;;;19.77;6.37;;;6.40;98.00;;;;;;5015814;28;20068;-88
2021/03/13 03:36:46;;;;;;;19.33;7.63;;;6.40;98.00;;;;;;4999217;28;20045;-87
2021/03/13 03:39:13;;;;;;;13.97;5.97;;;6.40;98.10;;;;;;5015687;28;20475;-87
2021/03/13 03:41:43;;;;;;;16.23;6.37;;;6.40;98.10;;;;;;5015685;28;20060;-86
2021/03/13 03:44:14;;;;;;;17.13;6.50;;;6.40;98.10;;;;;;5015854;28;20033;-87
2021/03/13 03:46:47;;;;;;;17.60;5.97;;;6.50;98.20;;;;;;5015708;28;20121;-89
2021/03/13 03:49:14;;;;;;;19.80;6.47;;;6.40;98.30;;;;;;5015562;28;20116;-89
2021/03/13 03:51:41;;;;;;;17.97;6.30;;;6.40;98.30;;;;;;5015939;28;20060;-89
2021/03/13 03:54:11;;;;;;;15.67;6.57;;;6.50;98.40;;;;;;5006699;28;20129;-89
2021/03/13 03:56:39;;;;;;;16.97;5.57;;;6.50;98.40;;;;;;4996008;28;20026;-89
2021/03/13 03:59:09;;;;;;;12.47;5.60;;;6.40;98.50;;;;;;4998145;28;20026;-89
2021/03/13 04:01:37;;;;;;;17.43;6.60;;;6.50;98.50;;;;;;4996865;28;20101;-85
2021/03/13 04:04:07;;;;;;;22.80;6.83;;;6.50;98.50;;;;;;4978890;28;20037;-87
2021/03/13 04:06:33;;;;;;;15.27;5.63;;;6.50;98.60;;;;;;4996532;28;20039;-87
2021/03/13 04:09:03;;;;;;;17.40;5.60;;;6.50;98.60;;;;;;4963094;28;20049;-86
2021/03/13 04:11:30;;;;;;;19.63;6.33;;;6.40;98.60;;;;;;4979076;28;20165;-86
2021/03/13 04:14:01;;;;;;;17.63;4.93;;;6.60;98.60;;;;;;4978951;28;20030;-87
2021/03/13 04:16:31;;;;;;;12.23;5.43;;;6.50;98.60;;;;;;4978426;28;20030;-85
2021/03/13 04:18:58;;;;;;;13.37;5.50;;;6.50;98.70;;;;;;4978004;28;20022;-84
2021/03/13 04:21:26;;;;;;;15.23;5.87;;;6.60;99.00;;;;;;4995758;28;20022;-87
2021/03/13 04:23:52;;;;;;;19.27;5.70;;;6.70;98.80;;;;;;4978433;28;20023;-87
2021/03/13 04:26:19;;;;;;;13.47;4.83;;;6.50;98.70;;;;;;4978255;28;20060;-87
2021/03/13 04:28:46;;;;;;;9.47;5.90;;;6.60;98.80;;;;;;4978460;28;20048;-87
2021/03/13 04:31:13;;;;;;;13.67;5.47;;;6.50;98.80;;;;;;4978655;28;20398;-86
2021/03/13 04:33:41;;;;;;;14.83;5.33;;;6.60;98.80;;;;;;4995916;28;20483;-87
2021/03/13 04:36:08;;;;;;;18.30;6.30;;;6.60;98.80;;;;;;4978565;28;20459;-87
2021/03/13 04:38:34;;;;;;;11.33;5.20;;;6.60;98.80;;;;;;4978459;28;20022;-87
2021/03/13 04:41:01;;;;;;;14.93;5.30;;;6.60;98.80;;;;;;4978583;28;20080;-86
2021/03/13 04:43:27;;;;;;;14.83;5.47;;;6.60;98.80;;;;;;4995643;28;20033;-87
2021/03/13 04:45:58;;;;;;;15.03;5.27;;;6.60;98.80;;;;;;4978339;28;20042;-86
2021/03/13 04:48:27;;;;;;;13.43;5.83;;;6.70;98.80;;;;;;4978227;28;20026;-86
2021/03/13 04:50:57;;;;;;;14.17;4.97;;;6.70;98.80;;;;;;4995728;28;20053;-87
2021/03/13 04:53:23;;;;;;;13.93;5.00;;;6.70;98.80;;;;;;4978535;28;20061;-86
2021/03/13 04:55:48;;;;;;;11.03;5.30;;;6.70;98.80;;;;;;5014876;28;20030;-86
2021/03/13 04:58:17;;;;;;;15.70;5.73;;;6.70;99.00;;;;;;4997952;28;20137;-86
2021/03/13 05:00:46;;;;;;;18.30;5.80;;;6.80;98.70;;;;;;5017458;28;20025;-88
2021/03/13 05:03:12;;;;;;;14.23;4.93;;;6.80;98.70;;;;;;5006168;28;20036;-87
2021/03/13 05:05:37;;;;;;;15.60;5.27;;;6.80;98.70;;;;;;5034031;28;20041;-86
2021/03/13 05:08:03;;;;;;;15.97;5.17;;;6.70;98.60;;;;;;5016861;28;20441;-88
2021/03/13 05:10:29;;;;;;;11.70;4.97;;;6.80;98.60;;;;;;5000294;28;20040;-86
2021/03/13 05:12:55;;;;;;;17.57;5.50;;;6.80;98.60;;;;;;5000726;28;20025;-86
2021/03/13 05:15:21;;;;;;;13.27;4.97;;;6.80;98.60;;;;;;5016179;28;20021;-84
2021/03/13 05:17:47;;;;;;;12.17;5.27;;;7.00;98.60;;;;;;5016796;28;20025;-86
2021/03/13 05:20:13;;;;;;;11.50;4.13;;;6.90;98.60;;;;;;5034555;28;20064;-86
2021/03/13 05:22:39;;;;;;;11.00;4.23;;;6.90;98.60;;;;;;5016141;28;20033;-85
2021/03/13 05:25:06;;;;;;;15.23;4.83;;;6.90;98.60;;;;;;5034067;28;20037;-86
2021/03/13 05:27:38;;;;;;;10.57;3.57;;;6.90;98.70;;;;;;5016427;28;20532;-87
2021/03/13 05:30:06;;;;;;;11.50;4.23;;;6.90;98.70;;;;;;5000815;28;20501;-85
2021/03/13 05:32:31;;;;;;;10.93;4.00;;;6.90;98.70;;;;;;4999608;28;20075;-85
2021/03/13 05:34:57;;;;;;;10.17;4.20;;;6.90;98.70;;;;;;5016156;28;20030;-85
2021/03/13 05:37:23;;;;;;;12.53;3.43;;;6.80;98.70;;;;;;5016453;28;20386;-84
2021/03/13 05:39:48;;;;;;;12.10;3.10;;;6.90;98.80;;;;;;5016116;28;20029;-83
2021/03/13 05:42:14;;;;;;;8.53;2.87;;;6.90;98.80;;;;;;5016019;28;20045;-85
2021/03/13 05:44:40;;;;;;;13.33;3.73;;;6.90;98.80;;;;;;5015935;28;20120;-84
2021/03/13 05:47:06;;;;;;;7.17;2.93;;;6.80;98.80;;;;;;5015719;28;20036;-85
2021/03/13 05:49:35;;;;;;;9.60;3.60;;;6.90;98.90;;;;;;5016129;28;20030;-85
2021/03/13 05:52:03;;;;;;;8.63;3.60;;;6.90;98.90;;;;;;4999621;28;20383;-85
2021/03/13 05:54:29;;;;;;;9.20;4.20;;;6.90;99.00;;;;;;4999744;28;20050;-85
2021/03/13 05:56:58;;;;;;;14.60;3.73;;;7.00;99.00;;;;;;4999695;28;20049;-85
2021/03/13 05:59:24;;;;;;;10.87;3.53;;;6.80;99.00;;;;;;5000080;28;20128;-85
2021/03/13 06:01:55;;;;;;;10.07;3.43;;;7.00;99.10;;;;;;4999596;28;20053;-85
2021/03/13 06:04:20;;;;;;;14.70;3.07;;;7.00;99.10;;;;;;5040600;28;20031;-87
2021/03/13 06:06:48;;;;;;;8.43;3.00;;;6.90;99.10;;;;;;5014875;28;20033;-85
2021/03/13 06:09:14;;;;;;;13.73;3.30;;;6.90;99.10;;;;;;5023785;28;20021;-86
2021/03/13 06:11:40;;;;;;;9.67;2.37;;;6.90;99.20;;;;;;5002409;28;20021;-85
2021/03/13 06:14:05;;;;;;;9.10;2.07;;;7.00;99.20;;;;;;5011101;28;20029;-84
2021/03/13 06:16:32;;;;;;;7.33;2.10;;;7.00;99.30;;;;;;5035208;28;20474;-83
2021/03/13 06:18:58;;;;;;;8.53;1.83;;;7.00;99.30;;;;;;4998623;28;20030;-83
2021/03/13 06:21:32;;;;;;;4.40;0.90;;;7.00;99.10;;;;;;5015367;28;20022;-84
2021/03/13 06:24:00;;;;;;;4.20;0.87;;;6.70;98.80;;;;;;5033111;28;20032;-85
2021/03/13 06:26:28;;;;;;;2.57;0.50;;;6.50;98.60;;;;;;5028332;28;20029;-85
2021/03/13 06:28:56;;;;;;;2.07;0.60;;;6.20;98.40;;;;;;5035807;28;20040;-85
2021/03/13 06:31:23;;;;;;;2.43;0.50;;;6.10;98.60;;;;;;5035749;28;20108;-88
2021/03/13 06:33:49;;;;;;;0.50;0.30;;;6.00;98.70;;;;;;5038406;28;20025;-84
2021/03/13 06:36:20;;;;;;;0.73;0.30;;;5.90;98.80;;;;;;5058518;28;20053;-86
2021/03/13 06:38:46;;;;;;;2.10;0.30;;;5.90;98.90;;;;;;5042355;28;20458;-85
2021/03/13 06:41:22;;;;;;;0.57;0.20;;;6.00;99.00;;;;;;5039251;28;20044;-85
2021/03/13 06:43:50;;;;;;;1.07;0.20;;;6.10;99.10;;;;;;5039654;28;20462;-85
2021/03/13 06:46:17;;;;;;;0.87;0.23;;;6.20;99.20;;;;;;5067975;28;20056;-88
2021/03/13 06:48:51;;;;;;;0.30;0.20;;;6.30;99.20;;;;;;5071909;28;20039;-87
2021/03/13 06:51:27;;;;;;;0.73;0.20;;;6.30;99.20;;;;;;5068161;28;20029;-87
2021/03/13 06:54:15;;;;;;;0.40;0.20;;;6.30;99.10;;;;;;5053317;28;20056;-88
2021/03/13 06:56:45;;;;;;;0.40;0.20;;;6.40;99.10;;;;;;5037983;28;20067;-88
2021/03/13 06:59:30;;;;;;;0.53;0.20;;;6.30;99.00;;;;;;5036495;28;20025;-88
2021/03/13 07:05:46;;;;;;;1.40;0.20;;;6.30;98.90;;;;;;5053968;28;20044;-88
2021/03/13 07:08:21;;;;;;;0.30;0.17;;;6.20;98.80;;;;;;5036460;28;20025;-87
2021/03/13 07:14:11;;;;;;;0.80;0.20;;;6.20;98.80;;;;;;5014330;28;20025;-87
2021/03/13 07:20:02;;;;;;;0.13;0.10;;;6.10;98.70;;;;;;5017558;28;20025;-88
2021/03/13 07:25:56;;;;;;;0.37;0.10;;;6.10;98.70;;;;;;5037539;28;20045;-87
2021/03/13 07:28:22;;;;;;;0.53;0.10;;;6.10;98.70;;;;;;5036983;28;20040;-89
2021/03/13 07:34:24;;;;;;;0.57;0.10;;;6.10;98.70;;;;;;5036742;28;20028;-88
2021/03/13 07:36:58;;;;;;;0.60;0.13;;;6.20;98.70;;;;;;5019171;28;20105;-88
2021/03/13 07:42:51;;;;;;;1.40;0.10;;;6.20;98.60;;;;;;5036802;28;20033;-87
2021/03/13 07:46:00;;;;;;;0.27;0.10;;;6.20;98.60;;;;;;5018820;28;20126;-87
2021/03/13 07:48:27;;;;;;;0.77;0.10;;;6.20;98.70;;;;;;5019091;28;20105;-87
2021/03/13 07:50:55;;;;;;;0.10;0.10;;;6.30;98.70;;;;;;5019447;28;20022;-89
2021/03/13 07:53:22;;;;;;;0.10;0.10;;;6.30;98.60;;;;;;5019105;28;20042;-89
2021/03/13 07:55:54;;;;;;;0.57;0.10;;;6.30;98.60;;;;;;5019779;28;20128;-88
2021/03/13 07:58:43;;;;;;;0.47;0.10;;;6.50;98.60;;;;;;5002852;28;20120;-89
2021/03/13 08:01:12;;;;;;;1.40;0.87;;;6.40;98.60;;;;;;5020127;28;20470;-87
2021/03/13 08:03:44;;;;;;;0.10;0.10;;;6.50;98.60;;;;;;5018809;28;20059;-88
2021/03/13 08:09:53;;;;;;;2.10;0.10;;;6.60;98.60;;;;;;5036561;28;20036;-88
2021/03/13 08:15:45;;;;;;;0.40;0.10;;;6.80;98.60;;;;;;5037024;28;20114;-88
2021/03/13 08:21:38;;;;;;;0.70;0.10;;;6.80;98.60;;;;;;5036578;28;20071;-88
2021/03/13 08:27:39;;;;;;;1.13;0.20;;;7.20;98.80;;;;;;5036480;28;20087;-89
2021/03/13 08:33:53;;;;;;;0.33;0.20;;;7.50;98.70;;;;;;5036622;28;20028;-89
2021/03/13 08:39:47;;;;;;;0.13;0.10;;;7.30;98.10;;;;;;4994735;28;20451;-88
2021/03/13 08:42:29;;;;;;;0.57;0.20;;;7.30;98.00;;;;;;4994292;28;20031;-89
2021/03/13 08:45:15;;;;;;;0.40;0.20;;;7.20;98.10;;;;;;4977372;28;20026;-89
2021/03/13 08:47:43;;;;;;;0.20;0.10;;;7.30;98.10;;;;;;4993842;28;20026;-88
2021/03/13 08:50:11;;;;;;;1.33;0.30;;;7.30;98.10;;;;;;4977816;28;20034;-89
2021/03/13 08:52:42;;;;;;;0.97;0.10;;;7.40;98.30;;;;;;4993822;28;20030;-86
2021/03/13 08:55:40;;;;;;;1.40;0.10;;;7.40;98.00;;;;;;4977380;28;20050;-91
2021/03/13 08:58:11;;;;;;;2.00;0.20;;;7.50;98.00;;;;;;4976889;28;20065;-89
2021/03/13 09:00:37;;;;;;;1.67;0.20;;;7.50;97.80;;;;;;4977380;28;20061;-88
2021/03/13 09:03:06;;;;;;;1.90;0.17;;;7.50;97.80;;;;;;4986505;28;20477;-87
2021/03/13 09:05:36;;;;;;;3.90;0.50;;;7.50;97.60;;;;;;5035010;28;20470;-86
2021/03/13 09:08:06;;;;;;;0.20;0.13;;;7.50;97.50;;;;;;5016312;28;20079;-88
2021/03/13 09:10:34;;;;;;;0.53;0.10;;;7.50;97.50;;;;;;5000825;28;20429;-87
2021/03/13 09:13:00;;;;;;;0.40;0.10;;;7.60;97.50;;;;;;5017632;28;20125;-86
2021/03/13 09:15:27;;;;;;;3.33;0.20;;;7.60;97.40;;;;;;5001137;28;20053;-87
2021/03/13 09:17:55;;;;;;;0.70;0.10;;;7.60;97.30;;;;;;5016897;28;20032;-89
2021/03/13 09:20:24;;;;;;;2.57;0.20;;;7.70;97.30;;;;;;5017455;28;20017;-89
2021/03/13 09:22:49;;;;;;;0.63;0.20;;;7.70;97.20;;;;;;5000771;28;20022;-88
2021/03/13 09:25:25;;;;;;;2.60;0.70;;;7.70;97.10;;;;;;5017018;28;20048;-87
2021/03/13 09:27:51;;;;;;;1.87;0.20;;;7.80;97.10;;;;;;5005693;28;20025;-85
2021/03/13 09:30:30;;;;;;;0.70;0.10;;;7.80;97.00;;;;;;5016449;28;20026;-89
2021/03/13 09:32:56;;;;;;;0.77;0.20;;;7.80;97.00;;;;;;5017065;28;20025;-86
2021/03/13 09:35:27;;;;;;;0.70;0.20;;;7.80;96.90;;;;;;5033621;28;20033;-85
2021/03/13 09:37:53;;;;;;;1.27;0.30;;;7.80;96.90;;;;;;5033843;28;20053;-86
2021/03/13 09:40:25;;;;;;;0.37;0.10;;;7.90;97.00;;;;;;5000315;28;20106;-86
2021/03/13 09:42:51;;;;;;;0.50;0.10;;;8.00;97.00;;;;;;5031190;28;20526;-91
2021/03/13 09:45:20;;;;;;;0.20;0.10;;;7.90;96.90;;;;;;5014844;28;20029;-86
2021/03/13 09:47:50;;;;;;;1.10;0.10;;;8.00;96.80;;;;;;5015331;28;20040;-86
2021/03/13 09:50:32;;;;;;;0.77;0.10;;;8.10;96.80;;;;;;5033850;28;20390;-88
2021/03/13 09:53:00;;;;;;;0.77;0.10;;;8.10;96.70;;;;;;5016090;28;20104;-88
2021/03/13 09:55:27;;;;;;;0.33;0.10;;;8.10;96.40;;;;;;5033635;28;20045;-86
2021/03/13 09:57:58;;;;;;;0.70;0.20;;;8.10;96.30;;;;;;5015671;28;20025;-83
2021/03/13 10:00:29;;;;;;;1.07;0.20;;;8.10;96.10;;;;;;5015923;28;20022;-88
2021/03/13 10:03:03;;;;;;;0.87;0.30;;;8.00;96.00;;;;;;5016628;28;20049;-85
2021/03/13 10:05:32;;;;;;;1.70;0.30;;;7.90;95.50;;;;;;5032907;28;20048;-84
2021/03/13 10:08:06;;;;;;;1.73;0.30;;;7.60;95.20;;;;;;5016650;28;20022;-90
2021/03/13 10:10:35;;;;;;;1.20;0.30;;;7.20;94.90;;;;;;5017446;28;20137;-87
2021/03/13 10:13:02;;;;;;;1.00;0.20;;;7.00;95.20;;;;;;5014719;28;20029;-89
2021/03/13 10:15:33;;;;;;;1.33;0.20;;;6.80;95.60;;;;;;5016464;28;20060;-89
2021/03/13 10:18:06;;;;;;;1.90;0.20;;;6.60;95.80;;;;;;5016002;28;20116;-88
2021/03/13 10:20:39;;;;;;;0.77;0.23;;;6.50;96.00;;;;;;5034246;28;20032;-87
2021/03/13 10:23:11;;;;;;;1.67;0.20;;;6.40;96.20;;;;;;5034215;28;20055;-88
2021/03/13 10:25:38;;;;;;;1.37;0.20;;;6.40;96.50;;;;;;5015590;28;20045;-88
2021/03/13 10:28:06;;;;;;;1.03;0.20;;;6.40;96.70;;;;;;5033893;28;20021;-88
2021/03/13 10:30:32;;;;;;;1.63;0.27;;;6.70;97.30;;;;;;5033877;28;20022;-87
2021/03/13 10:32:58;;;;;;;1.50;0.20;;;6.80;97.30;;;;;;5015877;28;20026;-87
2021/03/13 10:35:30;;;;;;;0.67;0.23;;;6.90;97.20;;;;;;5033260;28;20030;-86
2021/03/13 10:38:20;;;;;;;0.80;0.30;;;6.90;97.00;;;;;;5014898;28;20021;-85
2021/03/13 10:40:51;;;;;;;0.90;0.30;;;6.60;96.30;;;;;;5014260;28;20029;-83
2021/03/13 10:43:26;;;;;;;1.00;0.30;;;6.20;96.10;;;;;;5032975;28;20029;-83
2021/03/13 10:45:57;;;;;;;2.73;0.30;;;5.90;96.00;;;;;;5015533;28;20038;-84
2021/03/13 10:48:24;;;;;;;1.33;0.20;;;5.70;96.20;;;;;;5015395;28;20040;-84
2021/03/13 10:50:50;;;;;;;1.53;0.30;;;5.70;96.50;;;;;;5014950;28;20041;-85
2021/03/13 10:53:34;;;;;;;2.83;0.50;;;5.70;96.70;;;;;;5034266;28;20022;-86
2021/03/13 10:56:11;;;;;;;3.00;0.25;;;6.20;98.50;;;;;;5026185;28;20025;-86
2021/03/13 10:58:44;;;;;;;1.90;0.30;;;6.70;99.10;;;;;;5018827;28;20025;-83
2021/03/13 11:01:10;;;;;;;1.67;0.32;;;6.80;98.90;;;;;;5036567;28;20026;-85
2021/03/13 11:03:36;;;;;;;4.80;0.40;;;6.90;98.90;;;;;;5001762;28;20070;-87
2021/03/13 11:06:02;;;;;;;1.03;0.30;;;7.00;98.70;;;;;;5002348;28;20065;-86
2021/03/13 11:08:28;;;;;;;1.37;0.30;;;6.80;98.40;;;;;;5002498;28;20032;-84
2021/03/13 11:10:56;;;;;;;1.43;0.30;;;6.80;98.30;;;;;;5018976;28;20105;-84
2021/03/13 11:13:22;;;;;;;2.00;0.50;;;6.80;98.30;;;;;;5018457;28;20029;-85
2021/03/13 11:15:49;;;;;;;2.00;0.30;;;7.10;98.80;;;;;;5019114;28;20052;-86
2021/03/13 11:18:15;;;;;;;1.37;0.20;;;7.30;99.00;;;;;;5018504;28;20502;-84
2021/03/13 11:20:41;;;;;;;2.87;0.30;;;7.60;99.20;;;;;;5037719;28;20028;-93
2021/03/13 11:23:07;;;;;;;1.97;0.40;;;7.70;99.20;;;;;;5036901;28;20018;-87
2021/03/13 11:25:35;;;;;;;3.17;0.50;;;8.00;99.60;;;;;;5019887;28;20041;-90
2021/03/13 11:28:02;;;;;;;2.23;0.40;;;8.50;99.90;;;;;;5019546;28;20060;-88
2021/03/13 11:30:28;;;;;;;4.47;0.50;;;8.70;99.90;;;;;;5037044;28;20421;-91
2021/03/13 11:32:53;;;;;;;2.03;0.30;;;8.40;99.00;;;;;;5019456;28;20126;-84
2021/03/13 11:35:19;;;;;;;1.80;0.33;;;8.20;98.60;;;;;;5019172;28;20152;-86
2021/03/13 11:37:52;;;;;;;2.10;0.37;;;8.00;98.30;;;;;;5018327;28;20021;-84
2021/03/13 11:40:21;;;;;;;3.40;0.47;;;8.00;98.60;;;;;;5018099;28;20022;-84
2021/03/13 11:42:47;;;;;;;3.20;0.37;;;8.40;99.80;;;;;;5001858;28;20087;-87
2021/03/13 11:45:14;;;;;;;2.17;0.40;;;8.90;99.90;;;;;;5018057;28;20059;-83
2021/03/13 11:47:40;;;;;;;2.38;0.40;;;9.40;99.90;;;;;;5017451;28;20038;-86
2021/03/13 11:50:09;;;;;;;0.80;0.30;;;9.90;99.90;;;;;;5017666;28;20035;-86
2021/03/13 11:52:35;;;;;;;1.85;0.30;;;10.40;99.90;;;;;;5017519;28;20359;-86
2021/03/13 11:55:02;;;;;;;1.50;0.20;;;10.90;99.90;;;;;;5017879;28;20121;-86
2021/03/13 11:57:27;;;;;;;1.50;0.10;;;11.30;99.90;;;;;;5001834;28;20040;-87
2021/03/13 11:59:53;;;;;;;0.95;0.25;;;11.70;99.90;;;;;;5036000;28;20033;-86
2021/03/13 12:02:19;;;;;;;2.13;0.20;;;12.00;99.90;;;;;;5035644;28;20033;-87
2021/03/13 12:04:48;;;;;;;1.73;0.30;;;12.30;99.70;;;;;;5016980;28;20029;-87
2021/03/13 12:07:14;;;;;;;0.88;0.22;;;12.60;99.80;;;;;;5018634;28;20037;-87
2021/03/13 12:09:39;;;;;;;3.00;0.35;;;12.90;99.20;;;;;;5017761;28;20029;-87
2021/03/13 12:12:10;;;;;;;1.75;0.30;;;13.20;99.40;;;;;;5035776;28;20025;-86
2021/03/13 12:14:37;;;;;;;2.22;0.20;;;13.00;97.60;;;;;;5035615;28;20049;-86
2021/03/13 12:17:06;;;;;;;1.83;0.30;;;12.50;95.50;;;;;;5017611;28;20048;-86
2021/03/13 12:19:32;;;;;;;2.35;0.43;;;11.70;95.20;;;;;;5017410;28;20429;-87
2021/03/13 12:21:59;;;;;;;2.00;0.30;;;11.10;95.10;;;;;;5017554;28;20116;-85
2021/03/13 12:24:25;;;;;;;3.33;0.20;;;10.60;95.20;;;;;;5016820;28;20037;-87
2021/03/13 12:26:51;;;;;;;2.13;0.20;;;10.00;95.50;;;;;;5034953;28;20036;-86
2021/03/13 12:29:17;;;;;;;2.37;0.33;;;9.60;95.50;;;;;;5017350;28;20034;-86
2021/03/13 12:31:48;;;;;;;2.13;0.20;;;9.20;95.80;;;;;;5017643;28;20053;-87
2021/03/13 12:34:14;;;;;;;1.73;0.30;;;8.90;96.50;;;;;;5001632;28;20037;-88
2021/03/13 12:36:40;;;;;;;2.37;0.30;;;8.80;97.00;;;;;;5022089;28;20029;-90
2021/03/13 12:39:06;;;;;;;1.17;0.13;;;8.80;97.10;;;;;;5044878;28;20026;-94
2021/03/13 12:41:39;;;;;;;1.07;0.10;;;8.70;97.20;;;;;;5040617;28;20033;-94
2021/03/13 12:44:05;;;;;;;1.33;0.20;;;8.70;97.20;;;;;;5021720;28;20044;-93
2021/03/13 12:46:33;;;;;;;0.20;0.10;;;8.80;97.60;;;;;;5037797;28;20042;-94
2021/03/13 12:48:59;;;;;;;0.47;0.20;;;8.90;97.60;;;;;;5006963;28;20029;-94
2021/03/13 12:51:27;;;;;;;0.60;0.13;;;9.10;97.90;;;;;;5046265;28;20079;-92
2021/03/13 12:53:55;;;;;;;0.73;0.20;;;9.30;97.90;;;;;;5013258;28;20119;-90
2021/03/13 12:56:24;;;;;;;1.53;0.20;;;9.60;98.30;;;;;;5021553;28;20546;-93
2021/03/13 12:58:53;;;;;;;0.93;0.20;;;9.80;98.00;;;;;;5004642;28;20033;-94
2021/03/13 13:01:19;;;;;;;0.50;0.10;;;10.00;97.40;;;;;;5019987;28;20026;-91
2021/03/13 13:03:53;;;;;;;0.20;0.10;;;10.10;97.40;;;;;;5003953;28;20087;-94
2021/03/13 13:06:19;;;;;;;0.63;0.10;;;10.20;96.70;;;;;;5020542;28;20041;-93
2021/03/13 13:08:45;;;;;;;2.00;0.20;;;10.20;96.50;;;;;;5003474;28;20116;-93
2021/03/13 13:11:10;;;;;;;0.60;0.10;;;10.10;96.00;;;;;;5020757;28;20429;-94
2021/03/13 13:13:36;;;;;;;0.67;0.20;;;9.90;94.50;;;;;;5041179;28;20031;-91
2021/03/13 13:16:14;;;;;;;0.23;0.10;;;9.50;94.30;;;;;;5021375;28;20037;-93
2021/03/13 13:18:55;;;;;;;0.20;0.10;;;9.10;94.10;;;;;;5019620;28;20120;-93
2021/03/13 13:21:20;;;;;;;0.20;0.10;;;8.70;94.80;;;;;;5021818;28;20437;-92
2021/03/13 13:23:46;;;;;;;0.30;0.10;;;8.80;95.70;;;;;;5003465;28;20060;-91
2021/03/13 13:26:15;;;;;;;0.60;0.10;;;9.10;97.30;;;;;;5020663;28;20037;-93
2021/03/13 13:28:44;;;;;;;0.83;0.10;;;9.40;96.90;;;;;;5018427;28;20092;-90
2021/03/13 13:31:10;;;;;;;1.90;0.30;;;9.90;98.10;;;;;;5037638;28;20036;-93
2021/03/13 13:33:38;;;;;;;0.75;0.10;;;10.70;98.80;;;;;;5020768;28;20398;-92
2021/03/13 13:36:12;;;;;;;1.17;0.10;;;11.30;98.50;;;;;;5021961;28;20025;-91
2021/03/13 13:38:48;;;;;;;1.45;0.20;;;11.40;96.80;;;;;;5037696;28;20116;-92
2021/03/13 13:41:20;;;;;;;0.65;0.10;;;11.60;97.30;;;;;;5003872;28;20040;-92
2021/03/13 13:43:46;;;;;;;0.77;0.20;;;12.00;97.10;;;;;;5021427;28;20025;-92
2021/03/13 13:46:17;;;;;;;1.10;0.10;;;12.30;96.70;;;;;;5021010;28;20466;-92
2021/03/13 13:48:47;;;;;;;0.85;0.20;;;12.50;96.20;;;;;;5018736;28;20126;-94
2021/03/13 13:51:28;;;;;;;;;;;;;;;;;;;;;
2021/03/13 13:53:55;;;;;;;1.67;0.10;;;13.10;96.10;;;;;;5019857;28;20071;-93
2021/03/13 13:56:23;;;;;;;1.33;0.20;;;13.40;95.90;;;;;;5018213;28;20057;-92
2021/03/13 13:58:51;;;;;;;1.38;0.10;;;13.60;95.50;;;;;;5017405;28;20028;-91
2021/03/13 14:01:17;;;;;;;4.97;0.38;;;14.00;95.60;;;;;;5035321;28;20377;-94
2021/03/13 14:03:43;;;;;;;3.10;0.45;;;14.10;93.50;;;;;;5034873;28;20105;-93